createdAt,value
2019-03-12T00:02:18.948Z,99.90
2019-03-12T00:05:09.757Z,99.90
2019-03-12T00:08:02.075Z,99.90
2019-03-12T00:10:52.475Z,99.90
2019-03-12T00:13:42.896Z,99.90
2019-03-12T00:16:35.215Z,99.90
2019-03-12T00:19:25.115Z,99.90
2019-03-12T00:22:15.355Z,99.90
2019-03-12T00:25:05.659Z,99.90
2019-03-12T00:27:56.174Z,99.90
2019-03-12T00:30:47.076Z,99.90
2019-03-12T00:33:37.336Z,99.90
2019-03-12T00:36:28.295Z,99.90
2019-03-12T00:39:20.235Z,99.90
2019-03-12T00:42:11.017Z,99.90
2019-03-12T00:45:01.956Z,99.90
2019-03-12T00:47:53.776Z,99.90
2019-03-12T00:50:44.256Z,99.90
2019-03-12T00:53:34.817Z,99.90
2019-03-12T00:56:26.291Z,99.90
2019-03-12T00:59:16.795Z,99.90
2019-03-12T01:02:07.038Z,99.90
2019-03-12T01:04:57.438Z,99.90
2019-03-12T01:07:48.316Z,99.90
2019-03-12T01:10:38.722Z,99.90
2019-03-12T01:13:29.002Z,99.90
2019-03-12T01:16:19.459Z,99.90
2019-03-12T01:19:10.118Z,99.90
2019-03-12T01:22:01.278Z,99.90
2019-03-12T01:24:51.877Z,99.90
2019-03-12T01:27:42.876Z,99.90
2019-03-12T01:30:33.161Z,99.90
2019-03-12T01:33:23.216Z,99.90
2019-03-12T01:36:13.755Z,99.90
2019-03-12T01:39:04.548Z,99.90
2019-03-12T01:41:56.996Z,99.90
2019-03-12T01:44:47.298Z,99.90
2019-03-12T01:47:37.617Z,99.90
2019-03-12T01:50:28.155Z,99.90
2019-03-12T01:53:19.771Z,99.90
2019-03-12T01:56:10.257Z,99.90
2019-03-12T01:59:00.242Z,99.90
2019-03-12T02:01:50.437Z,99.90
2019-03-12T02:04:40.997Z,99.90
2019-03-12T02:07:31.514Z,99.90
2019-03-12T02:10:22.094Z,99.90
2019-03-12T02:13:12.256Z,99.90
2019-03-12T02:16:02.665Z,99.90
2019-03-12T02:18:53.116Z,99.90
2019-03-12T02:21:43.196Z,99.90
2019-03-12T02:24:33.617Z,99.90
2019-03-12T02:27:24.547Z,99.90
2019-03-12T02:30:17.406Z,99.90
2019-03-12T02:33:07.877Z,99.90
2019-03-12T02:35:59.037Z,99.90
2019-03-12T02:38:48.618Z,99.90
2019-03-12T02:41:39.026Z,99.90
2019-03-12T02:44:29.356Z,99.90
2019-03-12T02:47:19.597Z,99.90
2019-03-12T02:50:11.413Z,99.90
2019-03-12T02:53:03.099Z,99.90
2019-03-12T02:55:53.920Z,99.90
2019-03-12T02:58:44.173Z,99.90
2019-03-12T03:01:55.259Z,99.90
2019-03-12T03:04:46.056Z,99.90
2019-03-12T03:07:50.833Z,99.90
2019-03-12T03:10:40.936Z,99.90
2019-03-12T03:13:30.697Z,99.90
2019-03-12T03:16:24.191Z,99.90
2019-03-12T03:19:13.087Z,99.90
2019-03-12T03:22:03.532Z,99.90
2019-03-12T03:24:55.495Z,99.90
2019-03-12T03:27:45.880Z,99.90
2019-03-12T03:30:35.796Z,99.90
2019-03-12T03:33:26.099Z,99.90
2019-03-12T03:36:16.412Z,99.90
2019-03-12T03:39:06.931Z,99.90
2019-03-12T03:41:58.933Z,99.90
2019-03-12T03:44:49.294Z,99.90
2019-03-12T03:47:39.835Z,99.90
2019-03-12T03:50:30.333Z,99.90
2019-03-12T03:53:20.632Z,99.90
2019-03-12T03:56:11.195Z,99.90
2019-03-12T03:59:01.652Z,99.90
2019-03-12T04:01:51.674Z,99.90
2019-03-12T04:04:42.211Z,99.90
2019-03-12T04:07:32.878Z,99.90
2019-03-12T04:10:23.113Z,99.90
2019-03-12T04:13:14.268Z,99.90
2019-03-12T04:16:04.048Z,99.90
2019-03-12T04:22:02.933Z,99.90
2019-03-12T04:24:53.573Z,99.90
2019-03-12T04:27:43.373Z,99.90
2019-03-12T04:30:33.576Z,99.90
2019-03-12T04:34:17.052Z,99.90
2019-03-12T04:37:08.162Z,99.90
2019-03-12T04:39:58.534Z,99.90
2019-03-12T04:42:48.693Z,99.90
2019-03-12T04:45:39.532Z,99.90
2019-03-12T04:48:30.107Z,99.90
2019-03-12T04:51:20.705Z,99.90
2019-03-12T04:54:11.215Z,99.90
2019-03-12T04:57:02.231Z,99.90
2019-03-12T04:59:52.232Z,99.90
2019-03-12T05:02:43.255Z,99.90
2019-03-12T05:05:33.896Z,99.90
2019-03-12T05:08:24.812Z,99.90
2019-03-12T05:11:15.411Z,99.90
2019-03-12T05:14:31.664Z,99.90
2019-03-12T05:18:23.782Z,99.90
2019-03-12T05:21:14.373Z,99.90
2019-03-12T05:24:04.792Z,99.90
2019-03-12T05:26:55.213Z,99.90
2019-03-12T05:29:45.276Z,99.90
2019-03-12T05:32:35.206Z,99.90
2019-03-12T05:35:26.092Z,99.90
2019-03-12T05:38:16.593Z,99.90
2019-03-12T05:41:06.682Z,99.90
2019-03-12T05:43:57.453Z,99.90
2019-03-12T05:46:47.353Z,99.90
2019-03-12T05:49:37.592Z,99.90
2019-03-12T05:52:28.056Z,99.90
2019-03-12T05:55:18.711Z,99.90
2019-03-12T05:58:08.973Z,99.90
2019-03-12T06:00:59.432Z,99.90
2019-03-12T06:03:50.113Z,99.90
2019-03-12T06:06:40.193Z,99.90
2019-03-12T06:09:30.826Z,99.90
2019-03-12T06:12:22.204Z,99.90
2019-03-12T06:15:12.831Z,99.90
2019-03-12T06:18:03.355Z,99.90
2019-03-12T06:20:54.172Z,99.90
2019-03-12T06:23:44.952Z,99.90
2019-03-12T06:26:35.164Z,99.90
2019-03-12T06:29:25.432Z,99.90
2019-03-12T06:32:23.292Z,99.90
2019-03-12T06:35:18.073Z,99.90
2019-03-12T06:38:36.493Z,99.90
2019-03-12T06:41:37.111Z,99.90
2019-03-12T06:44:33.331Z,99.90
2019-03-12T06:47:51.992Z,99.90
2019-03-12T06:51:19.262Z,99.90
2019-03-12T06:54:28.313Z,99.90
2019-03-12T06:57:40.032Z,99.90
2019-03-12T07:00:45.757Z,99.90
2019-03-12T07:03:54.554Z,99.90
2019-03-12T07:07:18.857Z,99.90
2019-03-12T07:10:30.630Z,99.90
2019-03-12T07:13:45.993Z,99.90
2019-03-12T07:16:49.920Z,99.90
2019-03-12T07:20:01.732Z,99.90
2019-03-12T07:23:09.315Z,99.90
2019-03-12T07:26:24.073Z,99.90
2019-03-12T07:29:20.252Z,99.90
2019-03-12T07:32:19.892Z,99.90
2019-03-12T07:35:26.626Z,99.90
2019-03-12T07:38:24.016Z,99.90
2019-03-12T07:41:39.204Z,99.90
2019-03-12T07:44:51.526Z,99.90
2019-03-12T07:47:52.044Z,99.90
2019-03-12T07:51:02.357Z,99.90
2019-03-12T07:54:09.753Z,99.90
2019-03-12T07:57:17.633Z,99.90
2019-03-12T08:00:14.033Z,99.90
2019-03-12T08:03:19.472Z,99.90
2019-03-12T08:06:27.859Z,99.90
2019-03-12T08:09:26.640Z,99.90
2019-03-12T08:12:26.653Z,99.90
2019-03-12T08:15:42.513Z,99.90
2019-03-12T08:18:51.314Z,99.90
2019-03-12T08:22:08.470Z,99.90
2019-03-12T08:25:12.801Z,99.90
2019-03-12T08:28:13.952Z,99.90
2019-03-12T08:31:33.212Z,99.90
2019-03-12T08:34:33.034Z,99.90
2019-03-12T08:37:42.293Z,99.90
2019-03-12T08:40:52.856Z,99.90
2019-03-12T08:44:06.488Z,99.90
2019-03-12T08:47:18.519Z,99.90
2019-03-12T08:50:20.255Z,99.90
2019-03-12T08:53:40.573Z,99.90
2019-03-12T08:56:48.757Z,98.80
2019-03-12T08:59:52.733Z,92.80
2019-03-12T09:02:53.846Z,90.00
2019-03-12T09:05:54.273Z,84.40
2019-03-12T09:09:14.673Z,81.00
2019-03-12T09:12:36.855Z,79.00
2019-03-12T09:15:43.412Z,76.20
2019-03-12T09:18:52.712Z,72.40
2019-03-12T09:22:01.900Z,70.80
2019-03-12T09:25:11.625Z,72.20
2019-03-12T09:28:35.512Z,75.10
2019-03-12T09:31:44.421Z,75.70
2019-03-12T09:35:11.952Z,73.10
2019-03-12T09:38:12.572Z,74.50
2019-03-12T09:41:20.431Z,75.40
2019-03-12T09:44:25.574Z,76.10
2019-03-12T09:47:35.133Z,76.20
2019-03-12T09:50:30.186Z,75.80
2019-03-12T09:53:26.833Z,75.70
2019-03-12T09:56:35.185Z,73.70
2019-03-12T09:59:53.214Z,69.20
2019-03-12T10:03:08.673Z,66.90
2019-03-12T10:06:16.853Z,67.20
2019-03-12T10:09:42.926Z,66.60
2019-03-12T10:13:01.273Z,64.40
2019-03-12T10:16:10.013Z,61.20
2019-03-12T10:19:12.852Z,59.80
2019-03-12T10:22:23.492Z,59.90
2019-03-12T10:25:31.947Z,58.30
2019-03-12T10:28:50.316Z,58.20
2019-03-12T10:32:01.712Z,57.60
2019-03-12T10:35:03.434Z,57.30
2019-03-12T10:38:18.557Z,57.20
2019-03-12T10:41:21.653Z,56.10
2019-03-12T10:44:49.059Z,59.90
2019-03-12T10:47:39.416Z,62.00
2019-03-12T10:50:29.735Z,64.50
2019-03-12T10:53:20.407Z,67.80
2019-03-12T10:56:10.809Z,70.60
2019-03-12T10:59:01.536Z,73.80
2019-03-12T11:01:52.053Z,73.90
2019-03-12T11:04:42.653Z,72.90
2019-03-12T11:07:32.549Z,70.80
2019-03-12T11:10:22.953Z,69.30
2019-03-12T11:13:14.793Z,69.60
2019-03-12T11:16:06.836Z,69.20
2019-03-12T11:18:57.374Z,69.60
2019-03-12T11:21:47.888Z,67.30
2019-03-12T11:24:38.318Z,65.70
2019-03-12T11:27:29.053Z,62.90
2019-03-12T11:30:19.602Z,63.40
2019-03-12T11:33:09.855Z,60.60
2019-03-12T11:36:00.733Z,58.50
2019-03-12T11:38:50.817Z,65.90
2019-03-12T11:41:41.645Z,68.70
2019-03-12T11:44:31.590Z,68.80
2019-03-12T11:47:22.714Z,68.70
2019-03-12T11:50:16.032Z,67.30
2019-03-12T11:53:07.757Z,66.50
2019-03-12T11:55:58.072Z,63.20
2019-03-12T11:58:49.053Z,62.60
2019-03-12T12:01:39.633Z,62.00
2019-03-12T12:04:30.353Z,61.00
2019-03-12T12:07:20.485Z,63.20
2019-03-12T12:10:13.213Z,65.20
2019-03-12T12:13:04.486Z,65.80
2019-03-12T12:15:54.854Z,63.90
2019-03-12T12:18:45.147Z,65.20
2019-03-12T12:21:36.436Z,67.30
2019-03-12T12:24:26.973Z,69.40
2019-03-12T12:27:16.714Z,70.40
2019-03-12T12:30:08.253Z,70.30
2019-03-12T12:32:58.655Z,69.20
2019-03-12T12:35:49.611Z,64.80
2019-03-12T12:38:41.133Z,62.50
2019-03-12T12:41:32.113Z,62.90
2019-03-12T12:44:23.605Z,61.30
2019-03-12T12:47:14.092Z,57.70
2019-03-12T12:50:04.593Z,55.30
2019-03-12T12:52:55.956Z,55.10
2019-03-12T12:55:46.016Z,55.40
2019-03-12T12:58:36.698Z,56.60
2019-03-12T13:01:27.758Z,58.40
2019-03-12T13:04:18.013Z,59.80
2019-03-12T13:07:07.978Z,60.00
2019-03-12T13:09:58.192Z,62.70
2019-03-12T13:12:48.733Z,64.30
2019-03-12T13:15:39.402Z,62.70
2019-03-12T13:18:29.476Z,60.80
2019-03-12T13:21:20.432Z,57.30
2019-03-12T13:24:11.293Z,56.50
2019-03-12T13:27:02.003Z,56.60
2019-03-12T13:29:52.088Z,57.60
2019-03-12T13:32:42.673Z,59.50
2019-03-12T13:35:33.857Z,60.90
2019-03-12T13:38:24.107Z,62.30
2019-03-12T13:41:14.333Z,60.40
2019-03-12T13:44:05.183Z,59.50
2019-03-12T13:46:56.086Z,57.80
2019-03-12T13:49:46.451Z,57.20
2019-03-12T13:52:36.960Z,56.70
2019-03-12T13:55:27.305Z,55.50
2019-03-12T13:58:18.331Z,54.70
2019-03-12T14:01:08.573Z,54.10
2019-03-12T14:04:10.183Z,53.50
2019-03-12T14:06:51.275Z,52.50
2019-03-12T14:09:42.476Z,50.50
2019-03-12T14:12:33.833Z,48.20
2019-03-12T14:15:29.301Z,46.70
2019-03-12T14:18:19.656Z,46.40
2019-03-12T14:21:12.817Z,46.10
2019-03-12T14:24:04.573Z,46.10
2019-03-12T14:26:55.572Z,43.70
2019-03-12T14:29:45.498Z,42.80
2019-03-12T14:32:36.572Z,42.10
2019-03-12T14:35:27.434Z,40.50
2019-03-12T14:38:18.038Z,41.90
2019-03-12T14:41:08.274Z,43.30
2019-03-12T14:43:58.714Z,45.10
2019-03-12T14:46:48.753Z,48.20
2019-03-12T14:49:39.293Z,50.40
2019-03-12T14:52:34.152Z,51.10
2019-03-12T14:55:24.492Z,49.20
2019-03-12T14:58:15.772Z,48.40
2019-03-12T15:01:06.902Z,49.00
2019-03-12T15:03:57.586Z,50.00
2019-03-12T15:06:47.772Z,51.10
2019-03-12T15:09:38.853Z,52.90
2019-03-12T15:12:28.893Z,52.50
2019-03-12T15:15:19.612Z,53.20
2019-03-12T15:18:10.013Z,54.30
2019-03-12T15:21:00.282Z,55.60
2019-03-12T15:23:50.772Z,56.70
2019-03-12T15:26:41.653Z,57.50
2019-03-12T15:29:32.652Z,57.30
2019-03-12T15:32:24.112Z,55.50
2019-03-12T15:35:14.492Z,53.90
2019-03-12T15:38:04.893Z,54.40
2019-03-12T15:40:56.553Z,54.30
2019-03-12T15:43:46.878Z,55.70
2019-03-12T15:46:37.648Z,57.90
2019-03-12T15:49:28.092Z,59.00
2019-03-12T15:52:18.513Z,59.70
2019-03-12T15:55:09.212Z,60.90
2019-03-12T15:57:59.772Z,62.10
2019-03-12T16:00:50.352Z,63.40
2019-03-12T16:03:41.996Z,63.00
2019-03-12T16:06:33.375Z,63.90
2019-03-12T16:09:23.451Z,65.20
2019-03-12T16:12:13.716Z,65.10
2019-03-12T16:15:04.193Z,65.40
2019-03-12T16:17:54.493Z,66.70
2019-03-12T16:20:44.054Z,67.50
2019-03-12T16:23:34.496Z,67.80
2019-03-12T16:26:24.895Z,68.30
2019-03-12T16:29:15.613Z,69.70
2019-03-12T16:32:05.857Z,70.60
2019-03-12T16:34:55.672Z,71.70
2019-03-12T16:37:46.055Z,72.10
2019-03-12T16:40:36.153Z,72.20
2019-03-12T16:43:26.833Z,72.60
2019-03-12T16:46:17.052Z,73.00
2019-03-12T16:49:07.954Z,73.40
2019-03-12T16:51:58.814Z,74.80
2019-03-12T16:54:51.390Z,76.00
2019-03-12T16:57:41.213Z,77.10
2019-03-12T17:00:31.775Z,78.00
2019-03-12T17:03:22.293Z,78.70
2019-03-12T17:06:12.633Z,80.20
2019-03-12T17:09:02.817Z,81.80
2019-03-12T17:11:55.854Z,83.00
2019-03-12T17:14:46.213Z,84.10
2019-03-12T17:17:38.209Z,85.30
2019-03-12T17:20:28.458Z,86.50
2019-03-12T17:23:18.833Z,87.90
2019-03-12T17:26:09.712Z,88.90
2019-03-12T17:29:00.674Z,89.90
2019-03-12T17:31:59.018Z,90.90
2019-03-12T17:34:50.334Z,91.60
2019-03-12T17:37:40.553Z,92.80
2019-03-12T17:40:31.052Z,93.60
2019-03-12T17:43:22.037Z,94.30
2019-03-12T17:46:13.193Z,95.40
2019-03-12T17:49:03.936Z,96.40
2019-03-12T17:51:54.526Z,97.30
2019-03-12T17:54:45.299Z,98.30
2019-03-12T17:57:36.615Z,99.10
2019-03-12T18:00:28.754Z,99.90
2019-03-12T18:03:19.442Z,99.90
2019-03-12T18:06:10.354Z,99.90
2019-03-12T18:09:01.493Z,99.90
2019-03-12T18:11:54.013Z,99.90
2019-03-12T18:14:48.593Z,99.90
2019-03-12T18:17:39.373Z,99.90
2019-03-12T18:20:30.614Z,99.90
2019-03-12T18:23:23.993Z,99.90
2019-03-12T18:26:15.132Z,99.90
2019-03-12T18:29:06.725Z,99.90
2019-03-12T18:31:57.554Z,99.90
2019-03-12T18:34:48.637Z,99.90
2019-03-12T18:37:40.603Z,99.90
2019-03-12T18:40:31.536Z,99.90
2019-03-12T18:43:21.529Z,99.90
2019-03-12T18:46:12.653Z,99.90
2019-03-12T18:49:05.782Z,99.90
2019-03-12T18:51:56.532Z,99.90
2019-03-12T18:54:46.883Z,99.90
2019-03-12T18:57:37.734Z,99.90
2019-03-12T19:00:30.333Z,99.90
2019-03-12T19:03:21.427Z,99.90
2019-03-12T19:06:12.453Z,99.90
2019-03-12T19:09:03.524Z,99.90
2019-03-12T19:11:56.575Z,99.90
2019-03-12T19:14:49.092Z,99.90
2019-03-12T19:17:39.947Z,99.90
2019-03-12T19:20:32.985Z,99.90
2019-03-12T19:23:22.604Z,99.90
2019-03-12T19:26:14.424Z,99.90
2019-03-12T19:29:05.795Z,99.90
2019-03-12T19:32:12.913Z,99.90
2019-03-12T19:35:03.174Z,99.90
2019-03-12T19:37:54.023Z,99.90
2019-03-12T19:40:45.612Z,99.90
2019-03-12T19:43:36.404Z,99.90
2019-03-12T19:46:27.684Z,99.90
2019-03-12T19:49:22.483Z,99.90
2019-03-12T19:52:13.723Z,99.90
2019-03-12T19:55:04.813Z,99.90
2019-03-12T19:57:56.227Z,99.90
2019-03-12T20:00:48.484Z,99.90
2019-03-12T20:03:40.431Z,99.90
2019-03-12T20:06:31.517Z,99.90
2019-03-12T20:09:42.452Z,99.90
2019-03-12T20:13:41.504Z,99.90
2019-03-12T20:17:09.214Z,99.90
2019-03-12T20:20:30.804Z,99.90
2019-03-12T20:24:10.232Z,99.90
2019-03-12T20:27:51.311Z,99.90
2019-03-12T20:31:13.873Z,99.90
2019-03-12T20:35:01.062Z,99.90
2019-03-12T20:38:43.185Z,99.90
2019-03-12T20:42:13.222Z,99.90
2019-03-12T20:45:46.812Z,99.90
2019-03-12T20:49:13.087Z,99.90
2019-03-12T20:52:46.572Z,99.90
2019-03-12T20:56:37.585Z,99.90
2019-03-12T21:00:04.066Z,99.90
2019-03-12T21:03:40.853Z,99.90
2019-03-12T21:07:13.697Z,99.90
2019-03-12T21:11:00.256Z,99.90
2019-03-12T21:14:34.779Z,99.90
2019-03-12T21:18:22.157Z,99.90
2019-03-12T21:22:03.221Z,99.90
2019-03-12T21:25:43.213Z,99.90
2019-03-12T21:29:30.337Z,99.90
2019-03-12T21:32:21.499Z,99.90
2019-03-12T21:35:12.454Z,99.90
2019-03-12T21:38:03.694Z,99.90
2019-03-12T21:40:55.132Z,99.90
2019-03-12T21:43:46.396Z,99.90
2019-03-12T21:46:36.973Z,99.90
2019-03-12T21:49:27.740Z,99.90
2019-03-12T21:52:18.432Z,99.90
2019-03-12T21:55:10.793Z,99.90
2019-03-12T21:58:01.372Z,99.90
2019-03-12T22:00:51.458Z,99.90
2019-03-12T22:03:42.052Z,99.90
2019-03-12T22:06:32.335Z,99.90
2019-03-12T22:09:23.373Z,99.90
2019-03-12T22:12:13.797Z,99.90
2019-03-12T22:15:04.320Z,99.90
2019-03-12T22:17:56.301Z,99.90
2019-03-12T22:20:46.655Z,99.90
2019-03-12T22:23:44.091Z,99.90
2019-03-12T22:26:35.116Z,99.90
2019-03-12T22:29:25.750Z,99.90
2019-03-12T22:32:16.613Z,99.90
2019-03-12T22:35:06.977Z,99.90
2019-03-12T22:37:57.112Z,99.90
2019-03-12T22:40:47.853Z,99.90
2019-03-12T22:43:38.315Z,99.90
2019-03-12T22:46:29.564Z,99.90
2019-03-12T22:49:19.653Z,99.90
2019-03-12T22:52:10.132Z,99.90
2019-03-12T22:55:03.395Z,99.90
2019-03-12T22:57:52.348Z,99.90
2019-03-12T23:01:01.530Z,99.90
2019-03-12T23:04:10.032Z,99.90
2019-03-12T23:07:18.494Z,99.90
2019-03-12T23:10:10.868Z,99.90
2019-03-12T23:13:03.193Z,99.90
2019-03-12T23:15:53.453Z,99.90
2019-03-12T23:18:44.272Z,99.90
2019-03-12T23:21:34.923Z,99.90
2019-03-12T23:24:25.122Z,99.90
2019-03-12T23:27:15.866Z,99.90
2019-03-12T23:30:08.413Z,99.90
2019-03-12T23:32:59.692Z,99.90
2019-03-12T23:35:50.900Z,99.90
2019-03-12T23:38:41.372Z,99.90
2019-03-12T23:41:31.847Z,99.90
2019-03-12T23:44:23.135Z,99.90
2019-03-12T23:47:13.712Z,99.90
2019-03-12T23:50:04.412Z,99.90
2019-03-12T23:52:54.812Z,99.90
2019-03-12T23:55:45.072Z,99.90
2019-03-12T23:58:35.341Z,99.90
